sensor_id;sensor_type;location;lat;lon;timestamp;P1;durP1;ratioP1;P2;durP2;ratioP2
42662;SDS011;44330;51.360;6.686;2023-06-10T00:00:11;9.57;;;5.45;;
42662;SDS011;44330;51.360;6.686;2023-06-10T00:02:39;7.15;;;5.38;;
42662;SDS011;44330;51.360;6.686;2023-06-10T00:05:05;7.72;;;5.28;;
42662;SDS011;44330;51.360;6.686;2023-06-10T00:07:32;8.13;;;5.70;;
42662;SDS011;44330;51.360;6.686;2023-06-10T00:09:59;10.70;;;5.60;;
42662;SDS011;44330;51.360;6.686;2023-06-10T00:12:26;10.65;;;6.15;;
42662;SDS011;44330;51.360;6.686;2023-06-10T00:14:54;10.82;;;5.85;;
42662;SDS011;44330;51.360;6.686;2023-06-10T00:17:19;11.77;;;6.25;;
42662;SDS011;44330;51.360;6.686;2023-06-10T00:19:48;14.55;;;7.32;;
42662;SDS011;44330;51.360;6.686;2023-06-10T00:22:15;10.05;;;6.22;;
42662;SDS011;44330;51.360;6.686;2023-06-10T00:24:41;9.13;;;6.57;;
42662;SDS011;44330;51.360;6.686;2023-06-10T00:27:07;9.05;;;6.63;;
42662;SDS011;44330;51.360;6.686;2023-06-10T00:29:33;9.68;;;5.82;;
42662;SDS011;44330;51.360;6.686;2023-06-10T00:31:58;11.02;;;6.18;;
42662;SDS011;44330;51.360;6.686;2023-06-10T00:34:24;9.73;;;5.60;;
42662;SDS011;44330;51.360;6.686;2023-06-10T00:36:50;10.15;;;6.13;;
42662;SDS011;44330;51.360;6.686;2023-06-10T00:39:15;11.70;;;7.00;;
42662;SDS011;44330;51.360;6.686;2023-06-10T00:41:41;20.13;;;8.55;;
42662;SDS011;44330;51.360;6.686;2023-06-10T00:44:07;34.88;;;11.23;;
42662;SDS011;44330;51.360;6.686;2023-06-10T00:46:32;22.98;;;11.13;;
42662;SDS011;44330;51.360;6.686;2023-06-10T00:48:59;35.40;;;14.88;;
42662;SDS011;44330;51.360;6.686;2023-06-10T00:51:25;27.58;;;12.85;;
42662;SDS011;44330;51.360;6.686;2023-06-10T00:53:51;26.35;;;12.98;;
42662;SDS011;44330;51.360;6.686;2023-06-10T00:56:18;25.60;;;10.65;;
42662;SDS011;44330;51.360;6.686;2023-06-10T00:58:43;25.02;;;10.00;;
42662;SDS011;44330;51.360;6.686;2023-06-10T01:01:10;23.90;;;9.15;;
42662;SDS011;44330;51.360;6.686;2023-06-10T01:03:39;21.15;;;9.30;;
42662;SDS011;44330;51.360;6.686;2023-06-10T01:08:49;42.03;;;17.15;;
42662;SDS011;44330;51.360;6.686;2023-06-10T01:11:21;32.60;;;11.40;;
42662;SDS011;44330;51.360;6.686;2023-06-10T01:13:53;20.63;;;9.60;;
42662;SDS011;44330;51.360;6.686;2023-06-10T01:16:22;19.40;;;9.82;;
42662;SDS011;44330;51.360;6.686;2023-06-10T01:18:48;17.67;;;8.93;;
42662;SDS011;44330;51.360;6.686;2023-06-10T01:21:19;26.83;;;10.57;;
42662;SDS011;44330;51.360;6.686;2023-06-10T01:23:46;45.83;;;22.45;;
42662;SDS011;44330;51.360;6.686;2023-06-10T01:26:12;52.67;;;22.95;;
42662;SDS011;44330;51.360;6.686;2023-06-10T01:33:59;9.18;;;7.22;;
42662;SDS011;44330;51.360;6.686;2023-06-10T01:36:25;12.90;;;6.13;;
42662;SDS011;44330;51.360;6.686;2023-06-10T01:38:53;13.02;;;7.32;;
42662;SDS011;44330;51.360;6.686;2023-06-10T01:41:20;13.85;;;7.93;;
42662;SDS011;44330;51.360;6.686;2023-06-10T01:43:47;16.05;;;8.98;;
42662;SDS011;44330;51.360;6.686;2023-06-10T01:46:13;18.17;;;6.88;;
42662;SDS011;44330;51.360;6.686;2023-06-10T01:48:41;15.60;;;7.90;;
42662;SDS011;44330;51.360;6.686;2023-06-10T01:51:07;11.95;;;7.22;;
42662;SDS011;44330;51.360;6.686;2023-06-10T01:53:32;8.60;;;6.50;;
42662;SDS011;44330;51.360;6.686;2023-06-10T01:55:58;18.00;;;10.05;;
42662;SDS011;44330;51.360;6.686;2023-06-10T01:58:23;20.27;;;11.18;;
42662;SDS011;44330;51.360;6.686;2023-06-10T02:00:49;60.78;;;24.45;;
42662;SDS011;44330;51.360;6.686;2023-06-10T02:03:15;53.67;;;25.08;;
42662;SDS011;44330;51.360;6.686;2023-06-10T02:05:40;51.47;;;21.85;;
42662;SDS011;44330;51.360;6.686;2023-06-10T02:08:06;30.67;;;13.60;;
42662;SDS011;44330;51.360;6.686;2023-06-10T02:10:31;25.95;;;12.35;;
42662;SDS011;44330;51.360;6.686;2023-06-10T02:12:57;26.17;;;12.75;;
42662;SDS011;44330;51.360;6.686;2023-06-10T02:15:23;27.20;;;12.82;;
42662;SDS011;44330;51.360;6.686;2023-06-10T02:17:48;35.63;;;13.10;;
42662;SDS011;44330;51.360;6.686;2023-06-10T02:20:14;27.02;;;11.93;;
42662;SDS011;44330;51.360;6.686;2023-06-10T02:22:40;18.92;;;8.68;;
42662;SDS011;44330;51.360;6.686;2023-06-10T02:25:05;15.02;;;8.80;;
42662;SDS011;44330;51.360;6.686;2023-06-10T02:27:31;15.20;;;9.18;;
42662;SDS011;44330;51.360;6.686;2023-06-10T02:29:57;22.08;;;9.32;;
42662;SDS011;44330;51.360;6.686;2023-06-10T02:32:23;15.32;;;9.43;;
42662;SDS011;44330;51.360;6.686;2023-06-10T02:34:48;23.67;;;9.75;;
42662;SDS011;44330;51.360;6.686;2023-06-10T02:37:15;31.33;;;12.93;;
42662;SDS011;44330;51.360;6.686;2023-06-10T02:39:41;24.55;;;12.98;;
42662;SDS011;44330;51.360;6.686;2023-06-10T02:42:06;25.90;;;13.80;;
42662;SDS011;44330;51.360;6.686;2023-06-10T02:44:32;48.58;;;20.85;;
42662;SDS011;44330;51.360;6.686;2023-06-10T02:46:58;37.35;;;20.40;;
42662;SDS011;44330;51.360;6.686;2023-06-10T02:49:24;26.25;;;11.75;;
42662;SDS011;44330;51.360;6.686;2023-06-10T02:51:50;14.88;;;8.55;;
42662;SDS011;44330;51.360;6.686;2023-06-10T02:54:18;14.15;;;8.32;;
42662;SDS011;44330;51.360;6.686;2023-06-10T02:56:47;10.57;;;6.68;;
42662;SDS011;44330;51.360;6.686;2023-06-10T02:59:13;15.85;;;7.32;;
42662;SDS011;44330;51.360;6.686;2023-06-10T03:01:39;17.20;;;7.03;;
42662;SDS011;44330;51.360;6.686;2023-06-10T03:04:05;11.68;;;6.82;;
42662;SDS011;44330;51.360;6.686;2023-06-10T03:06:32;11.05;;;7.05;;
42662;SDS011;44330;51.360;6.686;2023-06-10T03:08:59;9.05;;;6.78;;
42662;SDS011;44330;51.360;6.686;2023-06-10T03:11:25;13.38;;;7.68;;
42662;SDS011;44330;51.360;6.686;2023-06-10T03:13:51;13.77;;;7.70;;
42662;SDS011;44330;51.360;6.686;2023-06-10T03:16:17;14.52;;;7.75;;
42662;SDS011;44330;51.360;6.686;2023-06-10T03:18:43;11.50;;;7.70;;
42662;SDS011;44330;51.360;6.686;2023-06-10T03:21:09;8.52;;;7.65;;
42662;SDS011;44330;51.360;6.686;2023-06-10T03:23:34;12.43;;;7.38;;
42662;SDS011;44330;51.360;6.686;2023-06-10T03:26:00;13.18;;;7.70;;
42662;SDS011;44330;51.360;6.686;2023-06-10T03:28:25;12.27;;;7.53;;
42662;SDS011;44330;51.360;6.686;2023-06-10T03:30:51;9.80;;;7.82;;
42662;SDS011;44330;51.360;6.686;2023-06-10T03:33:17;9.45;;;7.45;;
42662;SDS011;44330;51.360;6.686;2023-06-10T03:35:42;11.93;;;8.57;;
42662;SDS011;44330;51.360;6.686;2023-06-10T03:38:08;12.73;;;7.68;;
42662;SDS011;44330;51.360;6.686;2023-06-10T03:40:33;9.93;;;8.40;;
42662;SDS011;44330;51.360;6.686;2023-06-10T03:42:59;11.13;;;8.13;;
42662;SDS011;44330;51.360;6.686;2023-06-10T03:45:25;9.23;;;7.82;;
42662;SDS011;44330;51.360;6.686;2023-06-10T03:47:53;10.13;;;7.72;;
42662;SDS011;44330;51.360;6.686;2023-06-10T03:50:18;11.45;;;7.72;;
42662;SDS011;44330;51.360;6.686;2023-06-10T03:52:44;11.73;;;8.48;;
42662;SDS011;44330;51.360;6.686;2023-06-10T03:55:10;8.65;;;7.75;;
42662;SDS011;44330;51.360;6.686;2023-06-10T03:57:38;10.80;;;8.70;;
42662;SDS011;44330;51.360;6.686;2023-06-10T04:00:04;10.30;;;8.25;;
42662;SDS011;44330;51.360;6.686;2023-06-10T04:02:36;11.10;;;8.13;;
42662;SDS011;44330;51.360;6.686;2023-06-10T04:05:01;12.02;;;7.85;;
42662;SDS011;44330;51.360;6.686;2023-06-10T04:07:27;9.40;;;8.23;;
42662;SDS011;44330;51.360;6.686;2023-06-10T04:09:53;13.00;;;9.10;;
42662;SDS011;44330;51.360;6.686;2023-06-10T04:12:18;9.73;;;8.38;;
42662;SDS011;44330;51.360;6.686;2023-06-10T04:14:44;10.10;;;8.32;;
42662;SDS011;44330;51.360;6.686;2023-06-10T04:17:09;13.38;;;8.35;;
42662;SDS011;44330;51.360;6.686;2023-06-10T04:19:35;12.25;;;9.23;;
42662;SDS011;44330;51.360;6.686;2023-06-10T04:22:01;11.88;;;8.75;;
42662;SDS011;44330;51.360;6.686;2023-06-10T04:24:30;10.75;;;9.02;;
42662;SDS011;44330;51.360;6.686;2023-06-10T04:26:55;9.40;;;8.25;;
42662;SDS011;44330;51.360;6.686;2023-06-10T04:29:21;9.85;;;8.18;;
42662;SDS011;44330;51.360;6.686;2023-06-10T04:31:47;13.60;;;8.60;;
42662;SDS011;44330;51.360;6.686;2023-06-10T04:34:12;12.27;;;8.80;;
42662;SDS011;44330;51.360;6.686;2023-06-10T04:36:38;10.48;;;8.32;;
42662;SDS011;44330;51.360;6.686;2023-06-10T04:39:04;14.05;;;9.88;;
42662;SDS011;44330;51.360;6.686;2023-06-10T04:41:30;13.32;;;8.80;;
42662;SDS011;44330;51.360;6.686;2023-06-10T04:43:56;12.55;;;8.90;;
42662;SDS011;44330;51.360;6.686;2023-06-10T04:46:22;13.35;;;9.30;;
42662;SDS011;44330;51.360;6.686;2023-06-10T04:48:48;11.13;;;8.80;;
42662;SDS011;44330;51.360;6.686;2023-06-10T04:51:13;13.77;;;9.15;;
42662;SDS011;44330;51.360;6.686;2023-06-10T04:53:39;10.85;;;8.70;;
42662;SDS011;44330;51.360;6.686;2023-06-10T04:56:05;16.52;;;10.63;;
42662;SDS011;44330;51.360;6.686;2023-06-10T04:58:32;16.63;;;10.15;;
42662;SDS011;44330;51.360;6.686;2023-06-10T05:00:58;13.38;;;10.20;;
42662;SDS011;44330;51.360;6.686;2023-06-10T05:03:24;13.15;;;9.65;;
42662;SDS011;44330;51.360;6.686;2023-06-10T05:05:50;13.10;;;9.98;;
42662;SDS011;44330;51.360;6.686;2023-06-10T05:08:16;16.13;;;9.90;;
42662;SDS011;44330;51.360;6.686;2023-06-10T05:10:41;14.57;;;9.80;;
42662;SDS011;44330;51.360;6.686;2023-06-10T05:13:07;11.45;;;9.00;;
42662;SDS011;44330;51.360;6.686;2023-06-10T05:15:32;19.67;;;9.55;;
42662;SDS011;44330;51.360;6.686;2023-06-10T05:17:58;13.35;;;9.77;;
42662;SDS011;44330;51.360;6.686;2023-06-10T05:20:24;18.92;;;10.40;;
42662;SDS011;44330;51.360;6.686;2023-06-10T05:22:50;13.25;;;10.40;;
42662;SDS011;44330;51.360;6.686;2023-06-10T05:25:16;12.07;;;9.25;;
42662;SDS011;44330;51.360;6.686;2023-06-10T05:27:41;13.07;;;9.35;;
42662;SDS011;44330;51.360;6.686;2023-06-10T05:30:08;16.27;;;9.65;;
42662;SDS011;44330;51.360;6.686;2023-06-10T05:32:35;11.23;;;8.82;;
42662;SDS011;44330;51.360;6.686;2023-06-10T05:35:01;13.23;;;9.75;;
42662;SDS011;44330;51.360;6.686;2023-06-10T05:37:28;13.18;;;9.52;;
42662;SDS011;44330;51.360;6.686;2023-06-10T05:39:54;14.93;;;9.65;;
42662;SDS011;44330;51.360;6.686;2023-06-10T05:42:21;15.30;;;9.25;;
42662;SDS011;44330;51.360;6.686;2023-06-10T05:44:46;12.57;;;9.25;;
42662;SDS011;44330;51.360;6.686;2023-06-10T05:47:12;18.67;;;10.50;;
42662;SDS011;44330;51.360;6.686;2023-06-10T05:49:37;15.55;;;9.20;;
42662;SDS011;44330;51.360;6.686;2023-06-10T05:52:03;16.75;;;9.55;;
42662;SDS011;44330;51.360;6.686;2023-06-10T05:54:29;15.30;;;9.55;;
42662;SDS011;44330;51.360;6.686;2023-06-10T05:56:55;21.33;;;10.60;;
42662;SDS011;44330;51.360;6.686;2023-06-10T05:59:20;19.75;;;10.35;;
42662;SDS011;44330;51.360;6.686;2023-06-10T06:01:47;25.00;;;10.43;;
42662;SDS011;44330;51.360;6.686;2023-06-10T06:04:13;19.60;;;10.00;;
42662;SDS011;44330;51.360;6.686;2023-06-10T06:06:39;12.77;;;9.63;;
42662;SDS011;44330;51.360;6.686;2023-06-10T06:09:05;16.48;;;9.35;;
42662;SDS011;44330;51.360;6.686;2023-06-10T06:11:31;24.15;;;9.95;;
42662;SDS011;44330;51.360;6.686;2023-06-10T06:13:56;12.35;;;9.18;;
42662;SDS011;44330;51.360;6.686;2023-06-10T06:16:22;14.25;;;9.35;;
42662;SDS011;44330;51.360;6.686;2023-06-10T06:18:48;12.15;;;8.60;;
42662;SDS011;44330;51.360;6.686;2023-06-10T06:21:13;16.25;;;8.20;;
42662;SDS011;44330;51.360;6.686;2023-06-10T06:23:39;13.60;;;8.07;;
42662;SDS011;44330;51.360;6.686;2023-06-10T06:26:04;12.65;;;8.38;;
42662;SDS011;44330;51.360;6.686;2023-06-10T06:28:30;11.20;;;7.90;;
42662;SDS011;44330;51.360;6.686;2023-06-10T06:30:56;11.77;;;7.90;;
42662;SDS011;44330;51.360;6.686;2023-06-10T06:33:22;9.88;;;7.75;;
42662;SDS011;44330;51.360;6.686;2023-06-10T06:35:47;17.15;;;8.43;;
42662;SDS011;44330;51.360;6.686;2023-06-10T06:38:13;14.63;;;7.93;;
42662;SDS011;44330;51.360;6.686;2023-06-10T06:40:38;12.45;;;8.05;;
42662;SDS011;44330;51.360;6.686;2023-06-10T06:43:04;18.70;;;9.95;;
42662;SDS011;44330;51.360;6.686;2023-06-10T06:45:29;15.45;;;8.07;;
42662;SDS011;44330;51.360;6.686;2023-06-10T06:47:55;11.65;;;7.75;;
42662;SDS011;44330;51.360;6.686;2023-06-10T06:50:21;15.15;;;8.32;;
42662;SDS011;44330;51.360;6.686;2023-06-10T06:52:46;16.83;;;8.13;;
42662;SDS011;44330;51.360;6.686;2023-06-10T06:55:12;14.18;;;8.15;;
42662;SDS011;44330;51.360;6.686;2023-06-10T06:57:37;11.48;;;8.00;;
42662;SDS011;44330;51.360;6.686;2023-06-10T07:00:03;11.63;;;7.97;;
42662;SDS011;44330;51.360;6.686;2023-06-10T07:02:30;10.98;;;7.40;;
42662;SDS011;44330;51.360;6.686;2023-06-10T07:04:57;9.00;;;6.93;;
42662;SDS011;44330;51.360;6.686;2023-06-10T07:07:23;9.68;;;7.28;;
42662;SDS011;44330;51.360;6.686;2023-06-10T07:09:49;11.40;;;7.30;;
42662;SDS011;44330;51.360;6.686;2023-06-10T07:12:15;10.10;;;7.30;;
42662;SDS011;44330;51.360;6.686;2023-06-10T07:14:41;11.52;;;6.57;;
42662;SDS011;44330;51.360;6.686;2023-06-10T07:17:06;9.50;;;6.57;;
42662;SDS011;44330;51.360;6.686;2023-06-10T07:19:32;9.15;;;6.22;;
42662;SDS011;44330;51.360;6.686;2023-06-10T07:21:57;10.00;;;6.30;;
42662;SDS011;44330;51.360;6.686;2023-06-10T07:24:23;10.98;;;6.68;;
42662;SDS011;44330;51.360;6.686;2023-06-10T07:26:48;9.68;;;6.05;;
42662;SDS011;44330;51.360;6.686;2023-06-10T07:29:15;9.63;;;6.18;;
42662;SDS011;44330;51.360;6.686;2023-06-10T07:31:41;10.88;;;6.05;;
42662;SDS011;44330;51.360;6.686;2023-06-10T07:34:06;8.00;;;6.18;;
42662;SDS011;44330;51.360;6.686;2023-06-10T07:36:32;7.97;;;5.57;;
42662;SDS011;44330;51.360;6.686;2023-06-10T07:38:58;11.30;;;5.70;;
42662;SDS011;44330;51.360;6.686;2023-06-10T07:41:23;9.18;;;5.82;;
42662;SDS011;44330;51.360;6.686;2023-06-10T07:46:20;6.85;;;5.63;;
42662;SDS011;44330;51.360;6.686;2023-06-10T07:48:46;9.77;;;5.95;;
42662;SDS011;44330;51.360;6.686;2023-06-10T07:51:12;10.70;;;6.55;;
42662;SDS011;44330;51.360;6.686;2023-06-10T07:53:37;8.27;;;5.90;;
42662;SDS011;44330;51.360;6.686;2023-06-10T07:56:03;8.00;;;5.63;;
42662;SDS011;44330;51.360;6.686;2023-06-10T07:58:28;9.30;;;5.65;;
42662;SDS011;44330;51.360;6.686;2023-06-10T08:00:54;8.98;;;5.88;;
42662;SDS011;44330;51.360;6.686;2023-06-10T08:03:20;8.77;;;6.50;;
42662;SDS011;44330;51.360;6.686;2023-06-10T08:05:45;10.38;;;6.45;;
42662;SDS011;44330;51.360;6.686;2023-06-10T08:08:11;9.57;;;5.40;;
42662;SDS011;44330;51.360;6.686;2023-06-10T08:10:36;9.70;;;5.75;;
42662;SDS011;44330;51.360;6.686;2023-06-10T08:13:02;7.57;;;5.72;;
42662;SDS011;44330;51.360;6.686;2023-06-10T08:15:27;8.63;;;5.55;;
42662;SDS011;44330;51.360;6.686;2023-06-10T08:17:53;8.48;;;6.30;;
42662;SDS011;44330;51.360;6.686;2023-06-10T08:20:18;9.43;;;5.63;;
42662;SDS011;44330;51.360;6.686;2023-06-10T08:22:44;11.52;;;6.20;;
42662;SDS011;44330;51.360;6.686;2023-06-10T08:25:09;7.05;;;5.70;;
42662;SDS011;44330;51.360;6.686;2023-06-10T08:27:35;9.77;;;5.82;;
42662;SDS011;44330;51.360;6.686;2023-06-10T08:30:00;8.20;;;5.55;;
42662;SDS011;44330;51.360;6.686;2023-06-10T08:32:27;11.65;;;5.85;;
42662;SDS011;44330;51.360;6.686;2023-06-10T08:34:52;9.50;;;5.57;;
42662;SDS011;44330;51.360;6.686;2023-06-10T08:37:18;10.70;;;6.32;;
42662;SDS011;44330;51.360;6.686;2023-06-10T08:39:43;10.90;;;5.70;;
42662;SDS011;44330;51.360;6.686;2023-06-10T08:44:55;10.02;;;5.32;;
42662;SDS011;44330;51.360;6.686;2023-06-10T08:47:22;13.70;;;6.18;;
42662;SDS011;44330;51.360;6.686;2023-06-10T08:49:49;10.02;;;5.45;;
42662;SDS011;44330;51.360;6.686;2023-06-10T08:52:16;12.43;;;5.53;;
42662;SDS011;44330;51.360;6.686;2023-06-10T08:54:46;9.35;;;5.80;;
42662;SDS011;44330;51.360;6.686;2023-06-10T08:57:17;13.48;;;5.75;;
42662;SDS011;44330;51.360;6.686;2023-06-10T08:59:45;8.07;;;5.72;;
42662;SDS011;44330;51.360;6.686;2023-06-10T09:02:11;7.85;;;5.50;;
42662;SDS011;44330;51.360;6.686;2023-06-10T09:04:38;9.25;;;5.97;;
42662;SDS011;44330;51.360;6.686;2023-06-10T09:07:04;7.28;;;6.03;;
42662;SDS011;44330;51.360;6.686;2023-06-10T09:09:31;8.30;;;5.93;;
42662;SDS011;44330;51.360;6.686;2023-06-10T09:11:59;8.23;;;4.93;;
42662;SDS011;44330;51.360;6.686;2023-06-10T09:14:25;6.43;;;5.22;;
42662;SDS011;44330;51.360;6.686;2023-06-10T09:16:50;11.40;;;5.45;;
42662;SDS011;44330;51.360;6.686;2023-06-10T09:19:16;8.38;;;5.55;;
42662;SDS011;44330;51.360;6.686;2023-06-10T09:21:42;8.30;;;5.47;;
42662;SDS011;44330;51.360;6.686;2023-06-10T09:24:07;11.13;;;5.57;;
42662;SDS011;44330;51.360;6.686;2023-06-10T09:26:33;8.25;;;5.32;;
42662;SDS011;44330;51.360;6.686;2023-06-10T09:29:03;10.95;;;5.75;;
42662;SDS011;44330;51.360;6.686;2023-06-10T09:31:30;7.00;;;5.05;;
42662;SDS011;44330;51.360;6.686;2023-06-10T09:34:06;7.40;;;5.88;;
42662;SDS011;44330;51.360;6.686;2023-06-10T09:36:33;12.95;;;5.07;;
42662;SDS011;44330;51.360;6.686;2023-06-10T09:38:59;12.07;;;5.97;;
42662;SDS011;44330;51.360;6.686;2023-06-10T09:41:34;8.98;;;5.70;;
42662;SDS011;44330;51.360;6.686;2023-06-10T09:44:01;11.60;;;5.75;;
42662;SDS011;44330;51.360;6.686;2023-06-10T09:46:34;6.00;;;4.53;;
42662;SDS011;44330;51.360;6.686;2023-06-10T09:48:59;10.23;;;5.63;;
42662;SDS011;44330;51.360;6.686;2023-06-10T09:51:25;8.85;;;5.35;;
42662;SDS011;44330;51.360;6.686;2023-06-10T09:53:51;11.55;;;5.80;;
42662;SDS011;44330;51.360;6.686;2023-06-10T09:56:17;6.93;;;5.57;;
42662;SDS011;44330;51.360;6.686;2023-06-10T09:58:44;10.50;;;5.47;;
42662;SDS011;44330;51.360;6.686;2023-06-10T10:01:11;8.90;;;5.20;;
42662;SDS011;44330;51.360;6.686;2023-06-10T10:03:48;7.18;;;5.43;;
42662;SDS011;44330;51.360;6.686;2023-06-10T10:06:15;6.53;;;5.60;;
42662;SDS011;44330;51.360;6.686;2023-06-10T10:08:42;14.55;;;6.57;;
42662;SDS011;44330;51.360;6.686;2023-06-10T10:11:09;9.10;;;5.22;;
42662;SDS011;44330;51.360;6.686;2023-06-10T10:13:35;7.70;;;5.20;;
42662;SDS011;44330;51.360;6.686;2023-06-10T10:16:11;7.57;;;5.32;;
42662;SDS011;44330;51.360;6.686;2023-06-10T10:18:54;8.63;;;5.38;;
42662;SDS011;44330;51.360;6.686;2023-06-10T10:21:24;11.43;;;5.65;;
42662;SDS011;44330;51.360;6.686;2023-06-10T10:26:30;11.43;;;5.65;;
42662;SDS011;44330;51.360;6.686;2023-06-10T10:29:05;12.13;;;5.38;;
42662;SDS011;44330;51.360;6.686;2023-06-10T10:31:39;10.07;;;6.18;;
42662;SDS011;44330;51.360;6.686;2023-06-10T10:34:21;7.22;;;4.80;;
42662;SDS011;44330;51.360;6.686;2023-06-10T10:36:52;11.10;;;5.40;;
42662;SDS011;44330;51.360;6.686;2023-06-10T10:39:19;6.90;;;5.35;;
42662;SDS011;44330;51.360;6.686;2023-06-10T10:41:45;12.02;;;5.60;;
42662;SDS011;44330;51.360;6.686;2023-06-10T10:44:12;10.75;;;5.40;;
42662;SDS011;44330;51.360;6.686;2023-06-10T10:46:44;9.18;;;5.57;;
42662;SDS011;44330;51.360;6.686;2023-06-10T10:49:14;9.13;;;5.55;;
42662;SDS011;44330;51.360;6.686;2023-06-10T10:52:46;7.03;;;5.15;;
42662;SDS011;44330;51.360;6.686;2023-06-10T10:54:36;10.68;;;5.30;;
42662;SDS011;44330;51.360;6.686;2023-06-10T11:00:09;11.40;;;5.72;;
42662;SDS011;44330;51.360;6.686;2023-06-10T11:02:42;9.65;;;6.00;;
42662;SDS011;44330;51.360;6.686;2023-06-10T11:05:10;6.93;;;5.32;;
42662;SDS011;44330;51.360;6.686;2023-06-10T11:07:37;9.38;;;5.47;;
42662;SDS011;44330;51.360;6.686;2023-06-10T11:10:28;12.10;;;5.90;;
42662;SDS011;44330;51.360;6.686;2023-06-10T11:12:56;13.32;;;5.90;;
42662;SDS011;44330;51.360;6.686;2023-06-10T11:15:23;8.27;;;5.43;;
42662;SDS011;44330;51.360;6.686;2023-06-10T11:31:23;15.05;;;7.78;;
42662;SDS011;44330;51.360;6.686;2023-06-10T11:33:55;20.58;;;8.23;;
42662;SDS011;44330;51.360;6.686;2023-06-10T11:36:24;9.90;;;5.60;;
42662;SDS011;44330;51.360;6.686;2023-06-10T11:38:53;13.15;;;6.93;;
42662;SDS011;44330;51.360;6.686;2023-06-10T11:41:26;13.05;;;8.13;;
42662;SDS011;44330;51.360;6.686;2023-06-10T11:43:54;13.73;;;6.18;;
42662;SDS011;44330;51.360;6.686;2023-06-10T11:46:23;8.77;;;5.95;;
42662;SDS011;44330;51.360;6.686;2023-06-10T11:48:49;6.93;;;5.30;;
42662;SDS011;44330;51.360;6.686;2023-06-10T11:51:25;12.38;;;6.18;;
42662;SDS011;44330;51.360;6.686;2023-06-10T11:53:52;8.80;;;5.60;;
42662;SDS011;44330;51.360;6.686;2023-06-10T11:56:21;14.75;;;7.53;;
42662;SDS011;44330;51.360;6.686;2023-06-10T11:59:04;15.10;;;6.97;;
42662;SDS011;44330;51.360;6.686;2023-06-10T12:01:32;13.02;;;6.25;;
42662;SDS011;44330;51.360;6.686;2023-06-10T12:04:10;10.02;;;5.78;;
42662;SDS011;44330;51.360;6.686;2023-06-10T12:06:44;7.78;;;5.57;;
42662;SDS011;44330;51.360;6.686;2023-06-10T12:11:40;9.05;;;4.95;;
42662;SDS011;44330;51.360;6.686;2023-06-10T12:14:07;7.43;;;5.75;;
42662;SDS011;44330;51.360;6.686;2023-06-10T12:16:33;6.65;;;5.63;;
42662;SDS011;44330;51.360;6.686;2023-06-10T12:19:02;9.90;;;6.00;;
42662;SDS011;44330;51.360;6.686;2023-06-10T12:21:29;7.72;;;5.22;;
42662;SDS011;44330;51.360;6.686;2023-06-10T12:24:03;11.30;;;6.50;;
42662;SDS011;44330;51.360;6.686;2023-06-10T12:26:37;13.95;;;5.90;;
42662;SDS011;44330;51.360;6.686;2023-06-10T12:29:25;29.48;;;14.18;;
42662;SDS011;44330;51.360;6.686;2023-06-10T12:34:35;21.98;;;10.77;;
42662;SDS011;44330;51.360;6.686;2023-06-10T12:37:03;15.17;;;7.97;;
42662;SDS011;44330;51.360;6.686;2023-06-10T12:39:38;17.33;;;10.25;;
42662;SDS011;44330;51.360;6.686;2023-06-10T12:42:05;12.85;;;8.05;;
42662;SDS011;44330;51.360;6.686;2023-06-10T12:44:34;11.10;;;6.72;;
42662;SDS011;44330;51.360;6.686;2023-06-10T12:47:10;10.85;;;5.57;;
42662;SDS011;44330;51.360;6.686;2023-06-10T12:49:37;7.10;;;5.32;;
42662;SDS011;44330;51.360;6.686;2023-06-10T12:52:03;9.27;;;5.20;;
42662;SDS011;44330;51.360;6.686;2023-06-10T12:54:30;7.72;;;5.28;;
42662;SDS011;44330;51.360;6.686;2023-06-10T12:56:56;6.93;;;5.38;;
42662;SDS011;44330;51.360;6.686;2023-06-10T12:59:21;9.45;;;5.70;;
42662;SDS011;44330;51.360;6.686;2023-06-10T13:01:53;9.88;;;6.47;;
42662;SDS011;44330;51.360;6.686;2023-06-10T13:04:19;11.75;;;8.07;;
42662;SDS011;44330;51.360;6.686;2023-06-10T13:06:46;51.28;;;30.50;;
42662;SDS011;44330;51.360;6.686;2023-06-10T13:09:12;26.85;;;15.70;;
42662;SDS011;44330;51.360;6.686;2023-06-10T13:11:38;19.30;;;8.93;;
42662;SDS011;44330;51.360;6.686;2023-06-10T13:14:05;11.18;;;6.68;;
42662;SDS011;44330;51.360;6.686;2023-06-10T13:16:31;11.25;;;7.05;;
42662;SDS011;44330;51.360;6.686;2023-06-10T13:18:57;16.10;;;9.35;;
42662;SDS011;44330;51.360;6.686;2023-06-10T13:21:24;11.15;;;6.72;;
42662;SDS011;44330;51.360;6.686;2023-06-10T13:23:50;8.23;;;6.15;;
42662;SDS011;44330;51.360;6.686;2023-06-10T13:26:16;8.63;;;5.43;;
42662;SDS011;44330;51.360;6.686;2023-06-10T13:28:44;10.15;;;5.45;;
42662;SDS011;44330;51.360;6.686;2023-06-10T13:31:10;9.43;;;5.53;;
42662;SDS011;44330;51.360;6.686;2023-06-10T13:33:36;13.48;;;6.90;;
42662;SDS011;44330;51.360;6.686;2023-06-10T13:36:02;13.38;;;7.45;;
42662;SDS011;44330;51.360;6.686;2023-06-10T13:38:27;11.65;;;6.38;;
42662;SDS011;44330;51.360;6.686;2023-06-10T13:40:53;9.27;;;6.35;;
42662;SDS011;44330;51.360;6.686;2023-06-10T13:43:18;6.53;;;5.63;;
42662;SDS011;44330;51.360;6.686;2023-06-10T13:45:44;10.98;;;5.57;;
42662;SDS011;44330;51.360;6.686;2023-06-10T13:48:10;7.70;;;5.95;;
42662;SDS011;44330;51.360;6.686;2023-06-10T13:50:36;7.90;;;6.13;;
42662;SDS011;44330;51.360;6.686;2023-06-10T13:53:02;7.40;;;5.68;;
42662;SDS011;44330;51.360;6.686;2023-06-10T13:55:28;8.05;;;5.97;;
42662;SDS011;44330;51.360;6.686;2023-06-10T13:57:53;7.57;;;5.35;;
42662;SDS011;44330;51.360;6.686;2023-06-10T14:00:19;12.18;;;7.13;;
42662;SDS011;44330;51.360;6.686;2023-06-10T14:02:44;8.68;;;5.65;;
42662;SDS011;44330;51.360;6.686;2023-06-10T14:05:11;7.80;;;5.70;;
42662;SDS011;44330;51.360;6.686;2023-06-10T14:07:36;7.38;;;5.43;;
42662;SDS011;44330;51.360;6.686;2023-06-10T14:10:02;8.02;;;5.43;;
42662;SDS011;44330;51.360;6.686;2023-06-10T14:12:28;6.10;;;5.22;;
42662;SDS011;44330;51.360;6.686;2023-06-10T14:14:54;8.60;;;5.47;;
42662;SDS011;44330;51.360;6.686;2023-06-10T14:17:20;10.45;;;5.82;;
42662;SDS011;44330;51.360;6.686;2023-06-10T14:19:45;6.85;;;5.45;;
42662;SDS011;44330;51.360;6.686;2023-06-10T14:22:11;7.57;;;5.05;;
42662;SDS011;44330;51.360;6.686;2023-06-10T14:24:36;10.57;;;6.00;;
42662;SDS011;44330;51.360;6.686;2023-06-10T14:27:03;6.18;;;5.00;;
42662;SDS011;44330;51.360;6.686;2023-06-10T14:29:29;10.85;;;5.90;;
42662;SDS011;44330;51.360;6.686;2023-06-10T14:31:56;7.53;;;5.63;;
42662;SDS011;44330;51.360;6.686;2023-06-10T14:34:21;12.75;;;7.10;;
42662;SDS011;44330;51.360;6.686;2023-06-10T14:36:48;10.00;;;6.45;;
42662;SDS011;44330;51.360;6.686;2023-06-10T14:39:14;9.70;;;6.15;;
42662;SDS011;44330;51.360;6.686;2023-06-10T14:41:39;9.50;;;5.45;;
42662;SDS011;44330;51.360;6.686;2023-06-10T14:44:05;5.22;;;4.72;;
42662;SDS011;44330;51.360;6.686;2023-06-10T14:46:31;6.20;;;5.10;;
42662;SDS011;44330;51.360;6.686;2023-06-10T14:48:57;8.38;;;5.03;;
42662;SDS011;44330;51.360;6.686;2023-06-10T14:51:24;8.00;;;5.13;;
42662;SDS011;44330;51.360;6.686;2023-06-10T14:53:49;7.80;;;6.00;;
42662;SDS011;44330;51.360;6.686;2023-06-10T14:56:15;9.50;;;5.53;;
42662;SDS011;44330;51.360;6.686;2023-06-10T14:58:41;6.20;;;5.40;;
42662;SDS011;44330;51.360;6.686;2023-06-10T15:01:06;6.32;;;5.00;;
42662;SDS011;44330;51.360;6.686;2023-06-10T15:03:32;9.48;;;5.63;;
42662;SDS011;44330;51.360;6.686;2023-06-10T15:05:58;11.75;;;6.85;;
42662;SDS011;44330;51.360;6.686;2023-06-10T15:08:25;14.85;;;8.80;;
42662;SDS011;44330;51.360;6.686;2023-06-10T15:10:52;31.15;;;14.30;;
42662;SDS011;44330;51.360;6.686;2023-06-10T15:13:18;19.90;;;9.98;;